Terminal Aerodrome Forecast
Issued by NWS Greer, SC

Home | Current Version | Previous Version | Text Only | Print | Product List | Glossary On
Versions: 1 2 3 4 5 6 7 8 9 10 11 12 13
000
FTUS42 KGSP 202327
TAFGSP
TAF
KGSP 202327Z 2100/2124 13003KT P6SM SCT250
     FM210500 06003KT P6SM BKN250
     FM211300 06004KT P6SM BKN050 BKN200
     FM211700 12006KT P6SM BKN060 OVC200=

USA.gov is the U.S. government's official web portal to all federal, state and local government web resources and services.